createdAt,value
2023-02-06T00:01:25.997Z,55.00
2023-02-06T00:03:54.214Z,54.90
2023-02-06T00:06:22.180Z,55.30
2023-02-06T00:08:50.253Z,54.90
2023-02-06T00:11:18.362Z,54.90
2023-02-06T00:13:47.807Z,54.70
2023-02-06T00:16:19.824Z,54.70
2023-02-06T00:18:48.195Z,54.70
2023-02-06T00:21:18.084Z,54.60
2023-02-06T00:23:46.196Z,54.50
2023-02-06T00:26:14.119Z,54.50
2023-02-06T00:28:43.163Z,54.40
2023-02-06T00:31:12.504Z,54.40
2023-02-06T00:33:40.985Z,54.30
2023-02-06T00:36:10.072Z,54.20
2023-02-06T00:38:38.965Z,54.20
2023-02-06T00:41:07.276Z,54.20
2023-02-06T00:43:35.792Z,54.10
2023-02-06T00:46:03.717Z,54.00
2023-02-06T00:48:33.377Z,54.10
2023-02-06T00:51:01.376Z,53.90
2023-02-06T00:53:30.208Z,54.00
2023-02-06T00:55:59.391Z,53.90
2023-02-06T00:58:27.288Z,53.90
2023-02-06T01:00:55.265Z,53.80
2023-02-06T01:03:24.624Z,53.80
2023-02-06T01:05:53.995Z,53.90
2023-02-06T01:08:23.000Z,54.00
2023-02-06T01:10:52.596Z,53.90
2023-02-06T01:13:20.656Z,53.90
2023-02-06T01:15:51.004Z,54.00
2023-02-06T01:18:19.237Z,54.00
2023-02-06T01:20:47.224Z,54.10
2023-02-06T01:23:16.429Z,54.20
2023-02-06T01:25:45.454Z,54.20
2023-02-06T01:28:13.539Z,54.20
2023-02-06T01:30:41.663Z,54.20
2023-02-06T01:33:09.606Z,54.10
2023-02-06T01:35:38.351Z,54.00
2023-02-06T01:38:08.581Z,54.00
2023-02-06T01:40:37.962Z,54.00
2023-02-06T01:43:11.232Z,54.00
2023-02-06T01:45:43.574Z,54.00
2023-02-06T01:48:15.949Z,53.80
2023-02-06T01:50:47.597Z,54.30
2023-02-06T01:53:17.881Z,53.90
2023-02-06T01:55:48.739Z,53.90
2023-02-06T01:58:20.766Z,53.90
2023-02-06T02:00:49.865Z,53.90
2023-02-06T02:03:17.971Z,54.00
2023-02-06T02:05:47.522Z,54.10
2023-02-06T02:08:19.518Z,54.00
2023-02-06T02:10:49.175Z,54.00
2023-02-06T02:13:17.349Z,53.90
2023-02-06T02:15:58.756Z,53.80
2023-02-06T02:18:46.075Z,53.60
2023-02-06T02:21:42.979Z,53.70
2023-02-06T02:24:19.356Z,53.60
2023-02-06T02:27:16.597Z,53.60
2023-02-06T02:30:07.558Z,53.50
2023-02-06T02:33:07.348Z,53.50
2023-02-06T02:35:46.170Z,53.50
2023-02-06T02:38:25.994Z,53.50
2023-02-06T02:40:59.256Z,53.60
2023-02-06T02:43:34.856Z,53.60
2023-02-06T02:46:10.023Z,53.50
2023-02-06T02:48:42.293Z,53.50
2023-02-06T02:51:12.599Z,53.50
2023-02-06T02:53:40.657Z,53.50
2023-02-06T02:56:17.657Z,53.50
2023-02-06T02:58:48.477Z,53.60
2023-02-06T03:01:22.533Z,53.60
2023-02-06T03:03:53.038Z,53.70
2023-02-06T03:06:36.113Z,53.70
2023-02-06T03:09:12.373Z,53.70
2023-02-06T03:11:45.220Z,53.70
2023-02-06T03:14:22.372Z,53.80
2023-02-06T03:16:55.937Z,53.80
2023-02-06T03:19:30.794Z,53.80
2023-02-06T03:22:01.899Z,53.80
2023-02-06T03:24:33.821Z,53.80
2023-02-06T03:27:04.594Z,54.00
2023-02-06T03:29:36.328Z,54.00
2023-02-06T03:32:09.359Z,54.00
2023-02-06T03:34:44.432Z,54.10
2023-02-06T03:37:14.405Z,54.10
2023-02-06T03:39:42.602Z,54.10
2023-02-06T03:42:13.374Z,54.10
2023-02-06T03:44:46.287Z,54.20
2023-02-06T03:47:17.019Z,54.20
2023-02-06T03:49:48.159Z,54.20
2023-02-06T03:52:21.973Z,54.20
2023-02-06T03:54:54.395Z,54.10
2023-02-06T03:57:24.188Z,54.20
2023-02-06T03:59:52.511Z,54.20
2023-02-06T04:02:22.806Z,54.20
2023-02-06T04:04:50.834Z,54.60
2023-02-06T04:07:24.979Z,54.20
2023-02-06T04:09:53.495Z,54.30
2023-02-06T04:12:22.032Z,54.30
2023-02-06T04:14:50.393Z,54.30
2023-02-06T04:17:36.171Z,54.40
2023-02-06T04:20:08.286Z,54.40
2023-02-06T04:22:37.607Z,54.50
2023-02-06T04:25:05.951Z,54.40
2023-02-06T04:27:34.169Z,54.50
2023-02-06T04:30:02.386Z,54.50
2023-02-06T04:32:30.430Z,54.60
2023-02-06T04:34:58.517Z,54.60
2023-02-06T04:37:26.372Z,54.60
2023-02-06T04:39:55.764Z,54.70
2023-02-06T04:42:23.655Z,54.70
2023-02-06T04:44:51.757Z,54.70
2023-02-06T04:47:19.624Z,54.70
2023-02-06T04:49:47.686Z,54.70
2023-02-06T04:52:15.549Z,54.70
2023-02-06T04:54:43.602Z,54.70
2023-02-06T04:57:12.945Z,54.80
2023-02-06T04:59:41.014Z,54.70
2023-02-06T05:02:09.230Z,54.70
2023-02-06T05:04:38.828Z,54.70
2023-02-06T05:07:07.294Z,54.70
2023-02-06T05:09:35.242Z,54.80
2023-02-06T05:12:03.202Z,54.80
2023-02-06T05:14:32.560Z,54.90
2023-02-06T05:17:00.542Z,55.00
2023-02-06T05:19:28.687Z,54.90
2023-02-06T05:21:56.646Z,55.00
2023-02-06T05:24:24.643Z,55.00
2023-02-06T05:26:52.740Z,55.10
2023-02-06T05:29:20.771Z,55.10
2023-02-06T05:31:50.143Z,55.20
2023-02-06T05:34:18.325Z,55.70
2023-02-06T05:36:46.260Z,55.20
2023-02-06T05:39:14.461Z,55.30
2023-02-06T05:41:42.371Z,55.30
2023-02-06T05:44:11.039Z,55.30
2023-02-06T05:46:39.082Z,55.30
2023-02-06T05:49:08.388Z,55.20
2023-02-06T05:51:36.321Z,55.20
2023-02-06T05:54:04.314Z,55.20
2023-02-06T05:56:32.514Z,55.20
2023-02-06T05:59:00.506Z,55.30
2023-02-06T06:01:29.264Z,55.40
2023-02-06T06:03:57.650Z,55.40
2023-02-06T06:06:27.138Z,55.50
2023-02-06T06:08:55.086Z,55.50
2023-02-06T06:11:23.093Z,55.50
2023-02-06T06:13:51.017Z,55.40
2023-02-06T06:16:19.130Z,55.40
2023-02-06T06:18:49.383Z,55.40
2023-02-06T06:21:17.480Z,55.40
2023-02-06T06:23:46.719Z,55.40
2023-02-06T06:26:14.703Z,55.30
2023-02-06T06:28:43.331Z,55.40
2023-02-06T06:31:12.813Z,55.40
2023-02-06T06:33:41.623Z,55.40
2023-02-06T06:36:14.102Z,55.40
2023-02-06T06:38:42.666Z,55.40
2023-02-06T06:41:12.304Z,55.50
2023-02-06T06:43:40.793Z,55.60
2023-02-06T06:46:08.896Z,55.60
2023-02-06T06:48:38.351Z,55.70
2023-02-06T06:51:06.712Z,55.80
2023-02-06T06:53:34.879Z,56.00
2023-02-06T06:56:07.276Z,56.10
2023-02-06T06:58:36.800Z,56.30
2023-02-06T07:01:05.152Z,56.40
2023-02-06T07:03:33.817Z,56.40
2023-02-06T07:06:01.796Z,56.50
2023-02-06T07:08:30.097Z,56.50
2023-02-06T07:10:58.246Z,56.50
2023-02-06T07:13:26.561Z,56.40
2023-02-06T07:15:55.807Z,56.40
2023-02-06T07:18:23.788Z,56.40
2023-02-06T07:20:51.798Z,56.40
2023-02-06T07:23:19.715Z,56.30
2023-02-06T07:25:47.622Z,56.30
2023-02-06T07:28:15.708Z,56.30
2023-02-06T07:30:43.753Z,56.40
2023-02-06T07:33:13.257Z,56.40
2023-02-06T07:35:43.887Z,56.40
2023-02-06T07:38:11.957Z,56.50
2023-02-06T07:40:45.217Z,56.50
2023-02-06T07:43:13.959Z,56.60
2023-02-06T07:45:42.085Z,56.60
2023-02-06T07:48:10.231Z,56.70
2023-02-06T07:50:39.846Z,56.70
2023-02-06T07:53:07.860Z,56.80
2023-02-06T07:55:38.041Z,56.90
2023-02-06T07:58:06.168Z,56.90
2023-02-06T08:00:34.095Z,56.90
2023-02-06T08:03:02.257Z,56.90
2023-02-06T08:05:30.166Z,56.90
2023-02-06T08:07:59.595Z,56.80
2023-02-06T08:10:28.333Z,56.90
2023-02-06T08:12:56.263Z,57.00
2023-02-06T08:15:25.305Z,56.80
2023-02-06T08:17:53.523Z,56.90
2023-02-06T08:20:21.578Z,56.90
2023-02-06T08:22:49.518Z,56.90
2023-02-06T08:25:19.128Z,56.90
2023-02-06T08:27:47.126Z,56.70
2023-02-06T08:30:15.821Z,56.70
2023-02-06T08:32:43.801Z,56.60
2023-02-06T08:35:12.181Z,56.50
2023-02-06T08:37:40.760Z,56.40
2023-02-06T08:40:09.846Z,56.30
2023-02-06T08:42:39.066Z,56.40
2023-02-06T08:45:07.969Z,56.30
2023-02-06T08:47:35.907Z,56.80
2023-02-06T08:50:04.001Z,56.30
2023-02-06T08:52:32.023Z,56.40
2023-02-06T08:54:59.973Z,56.40
2023-02-06T08:57:27.838Z,56.40
2023-02-06T08:59:57.467Z,56.40
2023-02-06T09:02:25.415Z,56.50
2023-02-06T09:04:53.453Z,56.50
2023-02-06T09:07:21.707Z,56.60
2023-02-06T09:09:49.749Z,57.00
2023-02-06T09:12:17.708Z,57.90
2023-02-06T09:14:45.795Z,59.20
2023-02-06T09:17:15.285Z,60.60
2023-02-06T09:19:43.565Z,62.20
2023-02-06T09:22:11.652Z,63.10
2023-02-06T09:24:39.650Z,63.50
2023-02-06T09:27:07.575Z,63.40
2023-02-06T09:29:35.758Z,63.30
2023-02-06T09:32:03.884Z,63.10
2023-02-06T09:34:33.345Z,62.90
2023-02-06T09:37:03.396Z,61.90
2023-02-06T09:39:31.855Z,60.80
2023-02-06T09:42:04.952Z,59.70
2023-02-06T09:44:36.592Z,58.40
2023-02-06T09:47:19.264Z,57.20
2023-02-06T09:49:51.432Z,55.40
2023-02-06T09:52:33.794Z,54.70
2023-02-06T09:55:10.636Z,52.50
2023-02-06T09:57:46.805Z,52.40
2023-02-06T10:00:35.593Z,52.10
2023-02-06T10:03:21.646Z,48.70
2023-02-06T10:05:59.693Z,47.10
2023-02-06T10:08:34.458Z,47.30
2023-02-06T10:11:06.183Z,46.40
2023-02-06T10:13:38.720Z,44.70
2023-02-06T10:16:11.847Z,45.30
2023-02-06T10:18:45.151Z,45.30
2023-02-06T10:21:24.619Z,44.90
2023-02-06T10:23:59.481Z,44.30
2023-02-06T10:26:29.333Z,44.50
2023-02-06T10:29:00.473Z,44.80
2023-02-06T10:31:47.615Z,44.90
2023-02-06T10:34:27.206Z,44.40
2023-02-06T10:37:08.975Z,44.70
2023-02-06T10:39:50.396Z,45.00
2023-02-06T10:42:26.922Z,44.50
2023-02-06T10:45:17.113Z,44.80
2023-02-06T10:47:54.259Z,45.00
2023-02-06T10:50:27.863Z,45.10
2023-02-06T10:53:01.020Z,44.90
2023-02-06T10:55:31.983Z,44.80
2023-02-06T10:58:06.273Z,45.00
2023-02-06T11:00:35.550Z,44.50
2023-02-06T11:03:11.429Z,45.00
2023-02-06T11:05:39.872Z,44.80
2023-02-06T11:08:14.747Z,45.60
2023-02-06T11:10:43.207Z,45.50
2023-02-06T11:13:21.800Z,46.00
2023-02-06T11:15:57.310Z,45.70
2023-02-06T11:18:29.408Z,45.90
2023-02-06T11:20:57.854Z,45.80
2023-02-06T11:23:28.825Z,46.00
2023-02-06T11:26:08.991Z,46.00
2023-02-06T11:28:40.037Z,45.30
2023-02-06T11:31:10.208Z,45.30
2023-02-06T11:33:42.178Z,44.50
2023-02-06T11:36:24.834Z,44.20
2023-02-06T11:38:59.880Z,41.30
2023-02-06T11:41:29.280Z,42.10
2023-02-06T11:44:02.687Z,42.60
2023-02-06T11:46:35.081Z,42.00
2023-02-06T11:49:09.185Z,42.30
2023-02-06T11:51:55.957Z,40.90
2023-02-06T11:54:28.981Z,39.80
2023-02-06T11:56:59.793Z,40.70
2023-02-06T11:59:28.688Z,41.40
2023-02-06T12:01:57.623Z,41.30
2023-02-06T12:04:32.414Z,42.00
2023-02-06T12:07:06.785Z,42.20
2023-02-06T12:09:36.125Z,41.40
2023-02-06T12:12:11.016Z,42.00
2023-02-06T12:14:45.142Z,42.10
2023-02-06T12:17:24.914Z,41.80
2023-02-06T12:20:01.448Z,41.80
2023-02-06T12:22:34.725Z,41.90
2023-02-06T12:25:06.102Z,41.90
2023-02-06T12:27:39.556Z,41.70
2023-02-06T12:30:25.340Z,41.00
2023-02-06T12:33:01.002Z,40.90
2023-02-06T12:35:35.815Z,40.80
2023-02-06T12:38:11.774Z,40.60
2023-02-06T12:40:49.218Z,40.70
2023-02-06T12:43:19.008Z,40.40
2023-02-06T12:45:53.086Z,40.60
2023-02-06T12:48:27.064Z,40.40
2023-02-06T12:51:09.836Z,40.60
2023-02-06T12:53:43.059Z,40.40
2023-02-06T12:56:25.142Z,40.80
2023-02-06T12:59:07.371Z,39.60
2023-02-06T13:01:48.765Z,39.90
2023-02-06T13:04:20.197Z,39.90
2023-02-06T13:06:54.703Z,40.40
2023-02-06T13:09:26.709Z,40.30
2023-02-06T13:12:08.975Z,39.80
2023-02-06T13:14:39.810Z,40.10
2023-02-06T13:17:11.610Z,40.40
2023-02-06T13:20:04.521Z,40.50
2023-02-06T13:22:45.242Z,39.90
2023-02-06T13:25:53.557Z,40.10
2023-02-06T13:28:58.711Z,40.10
2023-02-06T13:31:31.106Z,40.10
2023-02-06T13:34:03.137Z,40.70
2023-02-06T13:36:52.797Z,40.50
2023-02-06T13:39:27.817Z,40.00
2023-02-06T13:42:00.226Z,40.20
2023-02-06T13:44:33.218Z,40.10
2023-02-06T13:47:41.311Z,39.80
2023-02-06T13:50:46.371Z,39.50
2023-02-06T13:53:37.109Z,39.80
2023-02-06T13:56:16.497Z,39.80
2023-02-06T13:58:51.646Z,40.00
2023-02-06T14:01:22.882Z,40.20
2023-02-06T14:03:54.411Z,40.50
2023-02-06T14:06:44.259Z,40.40
2023-02-06T14:09:37.937Z,40.30
2023-02-06T14:12:38.805Z,40.40
2023-02-06T14:15:28.661Z,40.50
2023-02-06T14:18:07.309Z,40.40
2023-02-06T14:20:45.350Z,40.80
2023-02-06T14:23:21.921Z,40.90
2023-02-06T14:26:08.088Z,41.20
2023-02-06T14:28:46.318Z,41.40
2023-02-06T14:31:24.905Z,41.50
2023-02-06T14:34:04.180Z,41.20
2023-02-06T14:36:49.535Z,41.10
2023-02-06T14:39:43.779Z,40.60
2023-02-06T14:42:17.512Z,40.30
2023-02-06T14:44:50.565Z,40.30
2023-02-06T14:47:21.543Z,40.40
2023-02-06T14:49:54.972Z,40.10
2023-02-06T14:52:26.529Z,40.10
2023-02-06T14:54:54.686Z,40.50
2023-02-06T14:57:25.772Z,40.50
2023-02-06T14:59:57.169Z,40.60
2023-02-06T15:02:30.978Z,40.70
2023-02-06T15:05:00.068Z,40.60
2023-02-06T15:07:33.444Z,40.70
2023-02-06T15:10:07.395Z,40.90
2023-02-06T15:12:36.968Z,40.90
2023-02-06T15:15:17.607Z,41.00
2023-02-06T15:17:57.649Z,40.90
2023-02-06T15:20:28.793Z,41.00
2023-02-06T15:23:16.615Z,40.90
2023-02-06T15:25:58.428Z,41.10
2023-02-06T15:28:30.105Z,41.20
2023-02-06T15:31:00.709Z,41.40
2023-02-06T15:33:31.131Z,41.50
2023-02-06T15:36:01.470Z,41.50
2023-02-06T15:38:34.050Z,41.60
2023-02-06T15:41:05.293Z,41.60
2023-02-06T15:43:35.416Z,41.80
2023-02-06T15:46:06.158Z,41.80
2023-02-06T15:48:37.994Z,41.90
2023-02-06T15:51:20.553Z,42.00
2023-02-06T15:53:51.369Z,42.20
2023-02-06T15:56:23.892Z,42.30
2023-02-06T15:58:58.961Z,42.40
2023-02-06T16:01:28.933Z,42.40
2023-02-06T16:04:00.176Z,42.50
2023-02-06T16:06:28.179Z,42.50
2023-02-06T16:09:00.132Z,42.70
2023-02-06T16:11:49.563Z,42.60
2023-02-06T16:14:25.083Z,42.70
2023-02-06T16:17:03.112Z,42.70
2023-02-06T16:19:48.540Z,42.80
2023-02-06T16:22:20.094Z,42.90
2023-02-06T16:24:49.809Z,42.90
2023-02-06T16:27:21.026Z,42.90
2023-02-06T16:29:52.616Z,43.00
2023-02-06T16:32:25.038Z,43.10
2023-02-06T16:34:53.520Z,43.20
2023-02-06T16:37:23.433Z,43.20
2023-02-06T16:39:53.531Z,43.30
2023-02-06T16:42:23.000Z,43.40
2023-02-06T16:44:53.498Z,43.40
2023-02-06T16:47:22.846Z,43.40
2023-02-06T16:49:52.366Z,43.40
2023-02-06T16:52:25.518Z,43.50
2023-02-06T16:54:57.703Z,43.60
2023-02-06T16:57:30.152Z,43.70
2023-02-06T16:59:58.598Z,43.70
2023-02-06T17:02:27.710Z,43.70
2023-02-06T17:04:56.360Z,43.80
2023-02-06T17:07:26.520Z,43.80
2023-02-06T17:09:57.170Z,43.90
2023-02-06T17:12:25.560Z,43.90
2023-02-06T17:14:53.534Z,44.00
2023-02-06T17:17:23.651Z,44.00
2023-02-06T17:19:52.781Z,44.10
2023-02-06T17:22:21.609Z,44.10
2023-02-06T17:24:50.108Z,44.20
2023-02-06T17:27:21.467Z,44.30
2023-02-06T17:29:50.641Z,44.30
2023-02-06T17:32:22.321Z,44.30
2023-02-06T17:34:53.922Z,44.40
2023-02-06T17:37:22.388Z,44.40
2023-02-06T17:39:51.633Z,44.40
2023-02-06T17:42:24.312Z,44.50
2023-02-06T17:44:52.362Z,44.60
2023-02-06T17:47:20.257Z,44.60
2023-02-06T17:49:48.346Z,44.70
2023-02-06T17:52:16.362Z,44.70
2023-02-06T17:54:45.378Z,44.80
2023-02-06T17:57:14.291Z,44.90
2023-02-06T17:59:43.844Z,44.90
2023-02-06T18:02:14.735Z,45.00
2023-02-06T18:04:43.517Z,45.00
2023-02-06T18:07:11.564Z,45.10
2023-02-06T18:09:41.759Z,45.10
2023-02-06T18:12:10.384Z,45.20
2023-02-06T18:14:39.598Z,45.20
2023-02-06T18:17:09.906Z,45.20
2023-02-06T18:19:42.273Z,45.30
2023-02-06T18:22:12.588Z,45.40
2023-02-06T18:24:41.355Z,45.40
2023-02-06T18:27:10.577Z,45.50
2023-02-06T18:29:49.460Z,45.50
2023-02-06T18:32:20.668Z,45.60
2023-02-06T18:34:48.757Z,45.60
2023-02-06T18:37:16.934Z,45.60
2023-02-06T18:39:44.930Z,45.70
2023-02-06T18:42:30.683Z,45.70
2023-02-06T18:44:58.667Z,45.80
2023-02-06T18:47:28.097Z,45.80
2023-02-06T18:49:56.035Z,45.80
2023-02-06T18:52:24.171Z,45.90
2023-02-06T18:54:52.291Z,46.00
2023-02-06T18:57:20.432Z,46.00
2023-02-06T18:59:48.335Z,46.00
2023-02-06T19:02:16.475Z,46.00
2023-02-06T19:04:46.097Z,46.60
2023-02-06T19:07:15.457Z,46.20
2023-02-06T19:09:43.725Z,46.20
2023-02-06T19:12:12.222Z,46.30
2023-02-06T19:14:40.234Z,46.40
2023-02-06T19:17:08.147Z,46.50
2023-02-06T19:19:36.177Z,46.50
2023-02-06T19:22:05.613Z,46.60
2023-02-06T19:24:33.605Z,46.60
2023-02-06T19:27:02.012Z,46.70
2023-02-06T19:29:36.302Z,46.80
2023-02-06T19:32:05.321Z,46.80
2023-02-06T19:34:36.209Z,46.90
2023-02-06T19:37:06.572Z,46.90
2023-02-06T19:39:35.715Z,47.10
2023-02-06T19:42:06.632Z,47.10
2023-02-06T19:44:36.306Z,47.10
2023-02-06T19:47:04.876Z,47.20
2023-02-06T19:49:33.279Z,47.20
2023-02-06T19:52:01.784Z,47.20
2023-02-06T19:54:31.492Z,47.30
2023-02-06T19:57:00.507Z,47.30
2023-02-06T19:59:30.291Z,47.30
2023-02-06T20:01:59.973Z,47.40
2023-02-06T20:04:29.501Z,47.50
2023-02-06T20:06:57.938Z,47.50
2023-02-06T20:09:26.983Z,47.70
2023-02-06T20:11:56.731Z,47.70
2023-02-06T20:14:25.811Z,47.80
2023-02-06T20:16:53.838Z,47.80
2023-02-06T20:19:24.713Z,47.80
2023-02-06T20:21:55.142Z,47.90
2023-02-06T20:24:24.983Z,47.90
2023-02-06T20:26:56.876Z,48.00
2023-02-06T20:29:26.814Z,48.00
2023-02-06T20:31:55.691Z,48.50
2023-02-06T20:34:24.342Z,48.10
2023-02-06T20:36:52.997Z,48.10
2023-02-06T20:39:21.455Z,48.10
2023-02-06T20:41:50.923Z,48.10
2023-02-06T20:44:21.496Z,48.10
2023-02-06T20:46:49.755Z,48.20
2023-02-06T20:49:19.689Z,48.10
2023-02-06T20:51:49.044Z,48.20
2023-02-06T20:54:17.117Z,48.20
2023-02-06T20:56:45.296Z,48.20
2023-02-06T20:59:14.457Z,48.30
2023-02-06T21:01:44.265Z,48.30
2023-02-06T21:04:14.464Z,48.30
2023-02-06T21:06:43.274Z,48.30
2023-02-06T21:09:11.910Z,48.30
2023-02-06T21:11:44.699Z,48.30
2023-02-06T21:14:13.611Z,48.80
2023-02-06T21:16:43.691Z,48.40
2023-02-06T21:19:13.702Z,48.40
2023-02-06T21:21:45.554Z,48.40
2023-02-06T21:24:14.537Z,48.30
2023-02-06T21:26:42.702Z,48.30
2023-02-06T21:29:13.170Z,48.40
2023-02-06T21:31:42.899Z,48.40
2023-02-06T21:34:13.769Z,48.40
2023-02-06T21:36:42.903Z,48.40
2023-02-06T21:39:12.500Z,48.40
2023-02-06T21:41:40.535Z,48.40
2023-02-06T21:44:08.482Z,48.50
2023-02-06T21:46:36.506Z,48.50
2023-02-06T21:49:09.183Z,48.50
2023-02-06T21:51:37.116Z,48.50
2023-02-06T21:54:05.439Z,48.50
2023-02-06T21:56:33.545Z,48.60
2023-02-06T21:59:01.458Z,48.50
2023-02-06T22:01:33.141Z,48.60
2023-02-06T22:04:01.486Z,48.60
2023-02-06T22:06:31.108Z,48.70
2023-02-06T22:09:05.063Z,48.80
2023-02-06T22:11:33.631Z,48.90
2023-02-06T22:14:04.125Z,48.80
2023-02-06T22:16:33.105Z,48.80
2023-02-06T22:19:01.798Z,48.80
2023-02-06T22:21:32.738Z,48.80
2023-02-06T22:24:04.411Z,48.80
2023-02-06T22:26:33.866Z,48.70
2023-02-06T22:29:02.124Z,48.70
2023-02-06T22:31:33.040Z,48.70
2023-02-06T22:34:01.927Z,48.70
2023-02-06T22:36:33.674Z,48.70
2023-02-06T22:39:03.232Z,48.80
2023-02-06T22:41:31.442Z,48.80
2023-02-06T22:44:00.068Z,48.80
2023-02-06T22:46:30.415Z,48.70
2023-02-06T22:48:58.641Z,48.70
2023-02-06T22:51:27.128Z,48.70
2023-02-06T22:53:57.412Z,48.60
2023-02-06T22:56:27.899Z,48.60
2023-02-06T22:58:57.083Z,48.60
2023-02-06T23:01:29.781Z,48.60
2023-02-06T23:03:58.712Z,48.60
2023-02-06T23:06:28.249Z,48.50
2023-02-06T23:08:59.262Z,48.60
2023-02-06T23:11:28.269Z,48.60
2023-02-06T23:13:58.234Z,48.60
2023-02-06T23:16:27.175Z,48.60
2023-02-06T23:18:55.449Z,48.60
2023-02-06T23:21:26.056Z,48.60
2023-02-06T23:23:57.078Z,48.70
2023-02-06T23:26:25.372Z,48.60
2023-02-06T23:28:53.691Z,48.50
2023-02-06T23:31:21.668Z,48.50
2023-02-06T23:33:49.727Z,48.60
2023-02-06T23:36:19.190Z,48.60
2023-02-06T23:38:48.305Z,48.50
2023-02-06T23:41:20.334Z,48.50
2023-02-06T23:43:51.935Z,48.50
2023-02-06T23:46:21.024Z,48.50
2023-02-06T23:48:49.893Z,48.60
2023-02-06T23:51:21.630Z,48.50
2023-02-06T23:53:50.492Z,48.60
2023-02-06T23:56:24.067Z,48.60
2023-02-06T23:58:52.614Z,49.00
